Terminal Aerodrome Forecast
Issued by NWS

Home | Current Version | Previous Version | Graphics & Text | Print | Product List | Glossary On
Versions: 1 2 3 4 5 6 7 8 9 10 11 12 13 14 15 16 17 18 19 20 21
000
FTUS43 KABR 220540
TAFATY
TAF
KATY 220540Z 2206/2306 16014KT P6SM BKN200 WS020/17040KT
     FM221400 17016G25KT P6SM BKN060
     FM221700 17023G33KT P6SM BKN060=

USA.gov is the U.S. government's official web portal to all federal, state and local government web resources and services.